createdAt,value
2022-12-05T00:01:14.041Z,19.90
2022-12-05T00:03:41.499Z,19.96
2022-12-05T00:06:09.007Z,19.89
2022-12-05T00:08:36.461Z,19.88
2022-12-05T00:11:03.907Z,19.97
2022-12-05T00:13:33.528Z,20.05
2022-12-05T00:16:02.220Z,20.05
2022-12-05T00:18:29.633Z,20.12
2022-12-05T00:20:57.074Z,20.14
2022-12-05T00:23:24.479Z,20.10
2022-12-05T00:25:51.887Z,20.12
2022-12-05T00:28:19.328Z,20.11
2022-12-05T00:30:46.743Z,20.09
2022-12-05T00:33:15.669Z,20.11
2022-12-05T00:35:43.093Z,20.12
2022-12-05T00:38:10.509Z,20.10
2022-12-05T00:40:37.985Z,20.09
2022-12-05T00:43:05.395Z,20.08
2022-12-05T00:45:32.984Z,20.10
2022-12-05T00:48:00.461Z,20.13
2022-12-05T00:50:29.170Z,20.11
2022-12-05T00:52:56.617Z,20.09
2022-12-05T00:55:24.033Z,20.15
2022-12-05T00:57:51.451Z,20.05
2022-12-05T01:00:19.797Z,20.04
2022-12-05T01:02:47.244Z,19.98
2022-12-05T01:05:14.912Z,19.95
2022-12-05T01:07:43.755Z,19.93
2022-12-05T01:10:11.368Z,19.93
2022-12-05T01:12:38.797Z,19.94
2022-12-05T01:15:07.217Z,19.90
2022-12-05T01:17:35.822Z,19.94
2022-12-05T01:20:03.269Z,19.95
2022-12-05T01:22:30.680Z,19.93
2022-12-05T01:24:59.536Z,19.96
2022-12-05T01:27:27.016Z,19.96
2022-12-05T01:29:54.671Z,20.10
2022-12-05T01:32:22.303Z,20.22
2022-12-05T01:34:49.736Z,20.26
2022-12-05T01:37:17.151Z,20.27
2022-12-05T01:39:44.952Z,20.31
2022-12-05T01:42:13.775Z,20.29
2022-12-05T01:45:06.127Z,20.28
2022-12-05T01:47:33.967Z,20.26
2022-12-05T01:50:01.399Z,20.26
2022-12-05T01:52:29.442Z,20.27
2022-12-05T01:54:58.215Z,20.27
2022-12-05T01:57:26.938Z,20.27
2022-12-05T01:59:56.331Z,20.23
2022-12-05T02:02:24.050Z,20.26
2022-12-05T02:04:53.947Z,20.27
2022-12-05T02:07:21.714Z,20.27
2022-12-05T02:09:49.140Z,20.24
2022-12-05T02:12:16.547Z,20.29
2022-12-05T02:14:47.816Z,20.27
2022-12-05T02:17:17.766Z,20.29
2022-12-05T02:20:01.062Z,20.26
2022-12-05T02:22:54.645Z,20.29
2022-12-05T02:25:47.563Z,20.32
2022-12-05T02:28:34.635Z,20.31
2022-12-05T02:31:05.769Z,20.30
2022-12-05T02:33:35.393Z,20.29
2022-12-05T02:36:04.745Z,20.32
2022-12-05T02:38:33.439Z,20.27
2022-12-05T02:41:04.975Z,20.31
2022-12-05T02:43:33.685Z,20.30
2022-12-05T02:46:04.591Z,20.32
2022-12-05T02:48:32.047Z,20.29
2022-12-05T02:50:59.684Z,20.29
2022-12-05T02:53:27.092Z,20.33
2022-12-05T02:55:54.598Z,20.31
2022-12-05T02:58:23.912Z,20.30
2022-12-05T03:00:56.273Z,20.28
2022-12-05T03:03:24.990Z,20.31
2022-12-05T03:05:54.993Z,20.31
2022-12-05T03:08:23.865Z,20.31
2022-12-05T03:10:51.282Z,20.31
2022-12-05T03:13:20.394Z,20.33
2022-12-05T03:15:48.827Z,20.35
2022-12-05T03:18:17.587Z,20.31
2022-12-05T03:20:48.625Z,20.31
2022-12-05T03:23:17.204Z,20.33
2022-12-05T03:25:49.180Z,20.31
2022-12-05T03:28:19.469Z,20.32
2022-12-05T03:30:46.935Z,20.31
2022-12-05T03:33:15.496Z,20.34
2022-12-05T03:35:44.640Z,20.31
2022-12-05T03:38:14.398Z,20.34
2022-12-05T03:40:43.471Z,20.33
2022-12-05T03:43:12.494Z,20.32
2022-12-05T03:45:44.266Z,20.32
2022-12-05T03:48:14.773Z,20.33
2022-12-05T03:50:43.266Z,20.34
2022-12-05T03:53:21.073Z,20.33
2022-12-05T03:55:51.962Z,20.34
2022-12-05T03:58:21.403Z,20.33
2022-12-05T04:00:48.825Z,20.38
2022-12-05T04:03:17.787Z,20.36
2022-12-05T04:05:46.948Z,20.32
2022-12-05T04:08:18.535Z,20.34
2022-12-05T04:10:50.474Z,20.35
2022-12-05T04:13:18.594Z,20.33
2022-12-05T04:16:01.267Z,20.37
2022-12-05T04:18:28.708Z,20.34
2022-12-05T04:21:13.950Z,20.35
2022-12-05T04:23:47.703Z,20.31
2022-12-05T04:26:18.336Z,20.30
2022-12-05T04:28:48.834Z,20.32
2022-12-05T04:31:17.767Z,20.33
2022-12-05T04:33:45.793Z,20.30
2022-12-05T04:36:14.208Z,20.30
2022-12-05T04:38:45.034Z,20.32
2022-12-05T04:41:14.431Z,20.29
2022-12-05T04:43:42.200Z,20.29
2022-12-05T04:46:11.316Z,20.32
2022-12-05T04:48:39.699Z,20.29
2022-12-05T04:51:07.635Z,20.31
2022-12-05T04:53:35.114Z,20.32
2022-12-05T04:56:03.982Z,20.30
2022-12-05T04:58:31.384Z,20.34
2022-12-05T05:01:00.500Z,20.30
2022-12-05T05:03:29.959Z,20.33
2022-12-05T05:05:57.427Z,20.33
2022-12-05T05:08:25.701Z,20.33
2022-12-05T05:10:58.224Z,20.32
2022-12-05T05:13:27.171Z,20.32
2022-12-05T05:15:54.605Z,20.34
2022-12-05T05:18:22.078Z,20.34
2022-12-05T05:20:49.491Z,20.33
2022-12-05T05:23:16.910Z,20.32
2022-12-05T05:25:44.303Z,20.34
2022-12-05T05:28:11.737Z,20.33
2022-12-05T05:30:40.434Z,20.34
2022-12-05T05:33:07.838Z,20.33
2022-12-05T05:35:36.844Z,20.33
2022-12-05T05:38:04.262Z,20.36
2022-12-05T05:40:31.691Z,20.37
2022-12-05T05:42:59.111Z,20.34
2022-12-05T05:45:26.543Z,20.38
2022-12-05T05:47:55.259Z,20.36
2022-12-05T05:50:22.667Z,20.26
2022-12-05T05:52:50.107Z,20.22
2022-12-05T05:55:17.871Z,20.17
2022-12-05T05:57:45.291Z,20.15
2022-12-05T06:00:13.769Z,20.19
2022-12-05T06:02:41.377Z,20.24
2022-12-05T06:05:10.339Z,20.23
2022-12-05T06:07:37.805Z,20.18
2022-12-05T06:10:06.177Z,20.15
2022-12-05T06:12:37.889Z,20.13
2022-12-05T06:15:10.377Z,20.11
2022-12-05T06:17:38.193Z,20.11
2022-12-05T06:20:06.760Z,20.08
2022-12-05T06:22:35.549Z,20.10
2022-12-05T06:25:02.951Z,20.07
2022-12-05T06:27:30.714Z,20.06
2022-12-05T06:29:58.420Z,20.04
2022-12-05T06:32:26.082Z,20.06
2022-12-05T06:34:53.504Z,20.18
2022-12-05T06:37:20.910Z,20.30
2022-12-05T06:39:49.620Z,20.35
2022-12-05T06:42:18.905Z,20.33
2022-12-05T06:44:46.329Z,20.33
2022-12-05T06:47:13.757Z,20.31
2022-12-05T06:49:41.153Z,20.31
2022-12-05T06:52:08.572Z,20.30
2022-12-05T06:54:36.088Z,20.30
2022-12-05T06:57:04.913Z,20.36
2022-12-05T06:59:32.306Z,20.38
2022-12-05T07:01:58.807Z,20.34
2022-12-05T07:04:26.331Z,20.37
2022-12-05T07:06:54.403Z,20.37
2022-12-05T07:09:22.954Z,20.35
2022-12-05T07:11:50.703Z,20.39
2022-12-05T07:14:45.438Z,20.38
2022-12-05T07:17:06.844Z,20.36
2022-12-05T07:19:34.267Z,20.37
2022-12-05T07:22:01.699Z,20.35
2022-12-05T07:24:29.105Z,20.30
2022-12-05T07:26:56.533Z,20.35
2022-12-05T07:29:25.232Z,20.34
2022-12-05T07:31:53.624Z,20.34
2022-12-05T07:34:21.069Z,20.33
2022-12-05T07:36:48.478Z,20.34
2022-12-05T07:39:16.159Z,20.33
2022-12-05T07:41:43.611Z,20.34
2022-12-05T07:44:16.020Z,20.33
2022-12-05T07:46:44.722Z,20.33
2022-12-05T07:49:12.133Z,20.34
2022-12-05T07:51:39.565Z,20.29
2022-12-05T07:54:07.196Z,20.30
2022-12-05T07:56:34.622Z,20.30
2022-12-05T07:59:02.052Z,20.31
2022-12-05T08:01:30.117Z,20.30
2022-12-05T08:03:59.573Z,20.31
2022-12-05T08:06:28.138Z,20.30
2022-12-05T08:08:55.557Z,20.31
2022-12-05T08:11:23.810Z,20.33
2022-12-05T08:13:51.388Z,20.31
2022-12-05T08:16:19.661Z,20.29
2022-12-05T08:18:47.210Z,20.31
2022-12-05T08:21:16.572Z,20.29
2022-12-05T08:23:44.626Z,20.29
2022-12-05T08:26:13.168Z,20.30
2022-12-05T08:28:40.611Z,20.28
2022-12-05T08:31:08.983Z,20.19
2022-12-05T08:33:36.541Z,20.22
2022-12-05T08:36:04.135Z,20.32
2022-12-05T08:38:33.001Z,20.32
2022-12-05T08:41:01.496Z,20.34
2022-12-05T08:43:28.899Z,20.32
2022-12-05T08:45:56.460Z,20.32
2022-12-05T08:48:29.240Z,20.33
2022-12-05T08:50:57.182Z,20.32
2022-12-05T08:53:24.600Z,20.30
2022-12-05T08:55:53.275Z,20.28
2022-12-05T08:58:20.693Z,20.32
2022-12-05T09:00:48.105Z,20.31
2022-12-05T09:03:15.516Z,20.27
2022-12-05T09:05:42.915Z,20.31
2022-12-05T09:08:10.403Z,20.28
2022-12-05T09:10:38.320Z,20.23
2022-12-05T09:13:07.039Z,20.23
2022-12-05T09:15:34.477Z,20.13
2022-12-05T09:18:02.023Z,20.09
2022-12-05T09:20:29.458Z,20.06
2022-12-05T09:22:56.866Z,20.05
2022-12-05T09:25:24.269Z,20.01
2022-12-05T09:27:51.671Z,20.01
2022-12-05T09:30:20.611Z,20.01
2022-12-05T09:32:48.026Z,20.01
2022-12-05T09:35:15.569Z,20.03
2022-12-05T09:37:43.004Z,20.00
2022-12-05T09:40:15.587Z,20.01
2022-12-05T09:42:48.532Z,20.00
2022-12-05T09:45:21.470Z,20.01
2022-12-05T09:47:52.799Z,19.99
2022-12-05T09:50:22.010Z,20.04
2022-12-05T09:53:19.190Z,20.02
2022-12-05T09:55:48.257Z,20.01
2022-12-05T09:58:26.069Z,20.01
2022-12-05T10:00:59.314Z,20.03
2022-12-05T10:03:29.521Z,20.00
2022-12-05T10:06:03.108Z,20.01
2022-12-05T10:08:32.568Z,20.01
2022-12-05T10:11:01.610Z,20.01
2022-12-05T10:13:36.611Z,20.00
2022-12-05T10:16:10.354Z,20.00
2022-12-05T10:18:40.331Z,20.00
2022-12-05T10:21:13.170Z,20.00
2022-12-05T10:24:00.268Z,20.01
2022-12-05T10:26:30.611Z,20.00
2022-12-05T10:29:00.809Z,20.01
2022-12-05T10:31:32.965Z,20.06
2022-12-05T10:34:04.421Z,20.04
2022-12-05T10:36:31.894Z,20.06
2022-12-05T10:38:59.891Z,20.09
2022-12-05T10:41:28.547Z,20.05
2022-12-05T10:43:55.945Z,20.10
2022-12-05T10:46:23.408Z,20.06
2022-12-05T10:48:52.182Z,20.05
2022-12-05T10:51:22.083Z,20.05
2022-12-05T10:53:50.775Z,20.04
2022-12-05T10:56:40.919Z,20.04
2022-12-05T10:59:08.862Z,20.03
2022-12-05T11:01:37.725Z,20.09
2022-12-05T11:04:13.892Z,20.06
2022-12-05T11:06:41.435Z,20.07
2022-12-05T11:09:14.850Z,20.11
2022-12-05T11:11:42.254Z,20.07
2022-12-05T11:14:22.521Z,20.08
2022-12-05T11:16:53.219Z,20.11
2022-12-05T11:19:26.170Z,20.11
2022-12-05T11:21:53.678Z,20.08
2022-12-05T11:24:22.495Z,20.05
2022-12-05T11:26:50.652Z,20.06
2022-12-05T11:29:34.519Z,20.10
2022-12-05T11:32:02.816Z,20.06
2022-12-05T11:34:34.227Z,20.07
2022-12-05T11:37:03.875Z,20.11
2022-12-05T11:39:31.295Z,20.10
2022-12-05T11:42:14.753Z,20.12
2022-12-05T11:44:53.157Z,20.10
2022-12-05T11:47:23.997Z,20.11
2022-12-05T11:50:03.101Z,20.11
2022-12-05T11:52:40.460Z,20.12
2022-12-05T11:55:14.711Z,20.14
2022-12-05T11:57:52.684Z,20.12
2022-12-05T12:00:23.546Z,20.11
2022-12-05T12:03:10.809Z,20.10
2022-12-05T12:05:40.157Z,20.12
2022-12-05T12:08:12.185Z,20.13
2022-12-05T12:10:44.237Z,20.13
2022-12-05T12:13:21.588Z,20.18
2022-12-05T12:15:54.403Z,20.19
2022-12-05T12:18:31.849Z,20.19
2022-12-05T12:21:05.593Z,20.23
2022-12-05T12:23:40.095Z,20.23
2022-12-05T12:26:10.609Z,20.16
2022-12-05T12:28:42.583Z,20.20
2022-12-05T12:31:20.838Z,20.19
2022-12-05T12:33:51.212Z,20.18
2022-12-05T12:36:22.826Z,20.18
2022-12-05T12:39:00.344Z,20.21
2022-12-05T12:41:38.148Z,20.21
2022-12-05T12:44:09.429Z,20.21
2022-12-05T12:46:41.948Z,20.21
2022-12-05T12:49:16.572Z,20.16
2022-12-05T12:51:49.898Z,20.17
2022-12-05T12:54:54.670Z,20.19
2022-12-05T12:57:22.087Z,20.20
2022-12-05T12:59:58.637Z,20.26
2022-12-05T13:02:27.851Z,20.28
2022-12-05T13:04:56.078Z,20.25
2022-12-05T13:07:27.280Z,20.21
2022-12-05T13:09:56.735Z,20.28
2022-12-05T13:12:26.243Z,20.27
2022-12-05T13:14:54.734Z,20.29
2022-12-05T13:17:22.254Z,20.30
2022-12-05T13:19:50.331Z,20.29
2022-12-05T13:22:17.875Z,20.29
2022-12-05T13:24:46.573Z,20.32
2022-12-05T13:27:16.409Z,20.26
2022-12-05T13:29:44.521Z,20.30
2022-12-05T13:32:26.151Z,20.33
2022-12-05T13:34:53.610Z,20.33
2022-12-05T13:37:40.471Z,20.32
2022-12-05T13:40:37.902Z,20.29
2022-12-05T13:43:05.350Z,20.31
2022-12-05T13:45:32.808Z,20.31
2022-12-05T13:48:07.846Z,20.27
2022-12-05T13:50:37.040Z,20.26
2022-12-05T13:53:05.480Z,20.29
2022-12-05T13:55:36.432Z,20.27
2022-12-05T13:58:04.917Z,20.30
2022-12-05T14:00:33.829Z,20.27
2022-12-05T14:03:04.767Z,20.27
2022-12-05T14:05:43.100Z,20.26
2022-12-05T14:08:46.970Z,20.28
2022-12-05T14:11:15.673Z,20.25
2022-12-05T14:13:45.041Z,20.28
2022-12-05T14:16:45.547Z,20.25
2022-12-05T14:19:34.993Z,20.28
2022-12-05T14:22:08.075Z,20.28
2022-12-05T14:24:37.990Z,20.29
2022-12-05T14:27:08.796Z,20.31
2022-12-05T14:29:40.500Z,20.31
2022-12-05T14:32:15.460Z,20.27
2022-12-05T14:34:50.362Z,20.31
2022-12-05T14:37:25.046Z,20.32
2022-12-05T14:39:52.902Z,20.30
2022-12-05T14:42:24.946Z,20.30
2022-12-05T14:44:53.346Z,20.32
2022-12-05T14:47:22.451Z,20.28
2022-12-05T14:49:54.681Z,20.32
2022-12-05T14:52:23.202Z,20.31
2022-12-05T14:54:51.834Z,20.34
2022-12-05T14:57:19.240Z,20.33
2022-12-05T14:59:51.349Z,20.28
2022-12-05T15:02:21.435Z,20.34
2022-12-05T15:04:51.851Z,20.30
2022-12-05T15:07:20.059Z,20.33
2022-12-05T15:09:56.453Z,20.34
2022-12-05T15:12:25.067Z,20.35
2022-12-05T15:14:58.626Z,20.35
2022-12-05T15:17:27.849Z,20.34
2022-12-05T15:19:58.330Z,20.33
2022-12-05T15:22:26.605Z,20.33
2022-12-05T15:24:54.037Z,20.36
2022-12-05T15:27:22.083Z,20.36
2022-12-05T15:29:49.487Z,20.37
2022-12-05T15:32:20.609Z,20.40
2022-12-05T15:34:49.379Z,20.40
2022-12-05T15:37:17.954Z,20.42
2022-12-05T15:39:53.699Z,20.41
2022-12-05T15:42:30.014Z,20.38
2022-12-05T15:45:12.863Z,20.41
2022-12-05T15:47:41.805Z,20.41
2022-12-05T15:50:13.449Z,20.40
2022-12-05T15:52:42.753Z,20.41
2022-12-05T15:55:15.111Z,20.40
2022-12-05T15:57:44.180Z,20.40
2022-12-05T16:00:15.772Z,20.40
2022-12-05T16:02:45.659Z,20.46
2022-12-05T16:05:20.987Z,20.36
2022-12-05T16:07:48.978Z,20.40
2022-12-05T16:10:16.869Z,20.38
2022-12-05T16:12:44.282Z,20.37
2022-12-05T16:15:13.471Z,20.40
2022-12-05T16:17:42.960Z,20.39
2022-12-05T16:20:13.851Z,20.37
2022-12-05T16:22:44.461Z,20.39
2022-12-05T16:25:13.844Z,20.40
2022-12-05T16:27:41.530Z,20.45
2022-12-05T16:30:11.254Z,20.47
2022-12-05T16:32:38.693Z,20.40
2022-12-05T16:35:21.274Z,20.42
2022-12-05T16:37:49.993Z,20.44
2022-12-05T16:40:22.092Z,20.39
2022-12-05T16:43:01.831Z,20.38
2022-12-05T16:45:38.799Z,20.40
2022-12-05T16:48:20.750Z,20.40
2022-12-05T16:50:48.248Z,20.40
2022-12-05T16:53:30.626Z,20.37
2022-12-05T16:55:58.558Z,20.37
2022-12-05T16:58:26.651Z,20.38
2022-12-05T17:00:57.383Z,20.35
2022-12-05T17:03:40.113Z,20.37
2022-12-05T17:06:07.630Z,20.38
2022-12-05T17:08:36.348Z,20.35
2022-12-05T17:11:03.916Z,20.34
2022-12-05T17:13:31.468Z,20.37
2022-12-05T17:15:58.925Z,20.39
2022-12-05T17:18:31.257Z,20.39
2022-12-05T17:20:59.301Z,20.38
2022-12-05T17:23:26.700Z,20.39
2022-12-05T17:25:55.859Z,20.37
2022-12-05T17:28:23.342Z,20.37
2022-12-05T17:30:50.748Z,20.35
2022-12-05T17:33:18.984Z,20.36
2022-12-05T17:35:46.852Z,20.35
2022-12-05T17:38:14.432Z,20.37
2022-12-05T17:40:41.878Z,20.40
2022-12-05T17:43:12.049Z,20.35
2022-12-05T17:45:39.462Z,20.36
2022-12-05T17:48:07.038Z,20.37
2022-12-05T17:50:34.510Z,20.36
2022-12-05T17:53:07.174Z,20.37
2022-12-05T17:55:34.994Z,20.36
2022-12-05T17:58:02.397Z,20.38
2022-12-05T18:00:31.174Z,20.38
2022-12-05T18:02:58.722Z,20.37
2022-12-05T18:05:26.150Z,20.38
2022-12-05T18:07:53.620Z,20.40
2022-12-05T18:10:23.278Z,20.36
2022-12-05T18:12:51.039Z,20.37
2022-12-05T18:15:18.525Z,20.40
2022-12-05T18:17:47.248Z,20.39
2022-12-05T18:20:15.416Z,20.38
2022-12-05T18:22:43.203Z,20.38
2022-12-05T18:25:11.227Z,20.34
2022-12-05T18:27:38.974Z,20.36
2022-12-05T18:30:07.975Z,20.36
2022-12-05T18:32:36.508Z,20.37
2022-12-05T18:35:11.335Z,20.35
2022-12-05T18:37:40.231Z,20.28
2022-12-05T18:40:08.679Z,20.28
2022-12-05T18:42:36.085Z,20.18
2022-12-05T18:45:03.718Z,20.17
2022-12-05T18:47:31.189Z,20.23
2022-12-05T18:49:58.905Z,20.20
2022-12-05T18:52:27.614Z,20.19
2022-12-05T18:55:15.858Z,20.18
2022-12-05T18:57:43.026Z,20.15
2022-12-05T19:00:11.620Z,20.20
2022-12-05T19:02:39.096Z,20.19
2022-12-05T19:05:06.972Z,20.16
2022-12-05T19:07:35.931Z,20.34
2022-12-05T19:10:05.568Z,20.43
2022-12-05T19:12:33.049Z,20.46
2022-12-05T19:15:00.974Z,20.45
2022-12-05T19:17:28.612Z,20.47
2022-12-05T19:19:57.191Z,20.48
2022-12-05T19:22:27.080Z,20.49
2022-12-05T19:24:55.807Z,20.47
2022-12-05T19:27:23.226Z,20.48
2022-12-05T19:29:50.625Z,20.48
2022-12-05T19:32:18.040Z,20.48
2022-12-05T19:34:46.424Z,20.43
2022-12-05T19:37:13.844Z,20.47
2022-12-05T19:39:42.801Z,20.45
2022-12-05T19:42:11.610Z,20.43
2022-12-05T19:44:39.017Z,20.33
2022-12-05T19:47:06.447Z,20.27
2022-12-05T19:49:33.841Z,20.20
2022-12-05T19:52:02.549Z,20.17
2022-12-05T19:54:30.008Z,20.16
2022-12-05T19:57:00.447Z,20.17
2022-12-05T19:59:29.161Z,20.19
2022-12-05T20:01:56.697Z,20.28
2022-12-05T20:04:24.248Z,20.26
2022-12-05T20:06:51.706Z,20.28
2022-12-05T20:09:20.041Z,20.27
2022-12-05T20:11:54.138Z,20.28
2022-12-05T20:14:22.832Z,20.28
2022-12-05T20:16:51.630Z,20.25
2022-12-05T20:19:19.117Z,20.26
2022-12-05T20:21:46.516Z,20.28
2022-12-05T20:24:13.933Z,20.28
2022-12-05T20:26:42.561Z,20.29
2022-12-05T20:29:09.967Z,20.26
2022-12-05T20:31:38.044Z,20.27
2022-12-05T20:34:06.965Z,20.27
2022-12-05T20:36:35.234Z,20.26
2022-12-05T20:39:03.442Z,20.28
2022-12-05T20:41:30.956Z,20.28
2022-12-05T20:43:59.499Z,20.28
2022-12-05T20:46:27.682Z,20.27
2022-12-05T20:48:56.289Z,20.26
2022-12-05T20:51:25.990Z,20.25
2022-12-05T20:53:53.425Z,20.27
2022-12-05T20:56:21.556Z,20.24
2022-12-05T20:58:50.308Z,20.26
2022-12-05T21:01:18.483Z,20.27
2022-12-05T21:03:46.580Z,20.25
2022-12-05T21:06:14.827Z,20.24
2022-12-05T21:08:43.524Z,20.28
2022-12-05T21:11:11.051Z,20.28
2022-12-05T21:13:38.579Z,20.27
2022-12-05T21:16:07.232Z,20.23
2022-12-05T21:18:34.672Z,20.28
2022-12-05T21:21:03.164Z,20.29
2022-12-05T21:23:30.649Z,20.28
2022-12-05T21:26:01.720Z,20.33
2022-12-05T21:28:30.093Z,20.38
2022-12-05T21:30:57.586Z,20.39
2022-12-05T21:33:28.801Z,20.41
2022-12-05T21:35:56.561Z,20.43
2022-12-05T21:38:23.969Z,20.39
2022-12-05T21:40:52.352Z,20.41
2022-12-05T21:43:21.102Z,20.42
2022-12-05T21:45:52.937Z,20.42
2022-12-05T21:48:20.844Z,20.41
2022-12-05T21:50:48.286Z,20.41
2022-12-05T21:53:15.748Z,20.40
2022-12-05T21:55:45.181Z,20.38
2022-12-05T21:58:12.596Z,20.41
2022-12-05T22:00:41.305Z,20.40
2022-12-05T22:03:08.781Z,20.41
2022-12-05T22:05:36.240Z,20.39
2022-12-05T22:08:06.698Z,20.37
2022-12-05T22:10:34.341Z,20.40
2022-12-05T22:13:01.766Z,20.39
2022-12-05T22:15:29.216Z,20.40
2022-12-05T22:17:57.921Z,20.38
2022-12-05T22:20:25.355Z,20.35
2022-12-05T22:22:52.768Z,20.29
2022-12-05T22:25:20.205Z,20.26
2022-12-05T22:27:47.608Z,20.20
2022-12-05T22:30:15.056Z,20.17
2022-12-05T22:32:42.462Z,20.15
2022-12-05T22:35:11.365Z,20.13
2022-12-05T22:37:38.815Z,20.13
2022-12-05T22:40:07.639Z,20.17
2022-12-05T22:42:35.059Z,20.41
2022-12-05T22:45:02.520Z,20.50
2022-12-05T22:47:30.003Z,20.54
2022-12-05T22:49:57.761Z,20.61
2022-12-05T22:52:27.755Z,20.57
2022-12-05T22:54:55.440Z,20.60
2022-12-05T22:57:22.981Z,20.62
2022-12-05T22:59:50.430Z,20.64
2022-12-05T23:02:17.855Z,20.60
2022-12-05T23:04:45.272Z,20.60
2022-12-05T23:07:12.720Z,20.55
2022-12-05T23:09:41.393Z,20.58
2022-12-05T23:12:08.854Z,20.58
2022-12-05T23:14:36.283Z,20.57
2022-12-05T23:17:03.710Z,20.59
2022-12-05T23:19:31.122Z,20.53
2022-12-05T23:21:58.546Z,20.52
2022-12-05T23:24:25.961Z,20.55
2022-12-05T23:26:54.921Z,20.56
2022-12-05T23:29:22.316Z,20.56
2022-12-05T23:31:49.760Z,20.57
2022-12-05T23:34:17.340Z,20.51
2022-12-05T23:36:44.745Z,20.52
2022-12-05T23:39:12.181Z,20.45
2022-12-05T23:41:39.612Z,20.43
2022-12-05T23:44:08.307Z,20.45
2022-12-05T23:46:36.027Z,20.44
2022-12-05T23:49:03.843Z,20.45
2022-12-05T23:51:31.401Z,20.46
2022-12-05T23:53:59.681Z,20.44
2022-12-05T23:56:28.570Z,20.48
2022-12-05T23:58:56.268Z,20.46
